MMA112 VGHS-VYYY
Flight info
| Callsign | MMA112 |
|---|---|
| Flight time | N/A |
| Altitude | 39000 |
| Route | ADMIL2 ADMIL G463 DORLI OKIKO1B |
| Aircraft | A20N/M-SDE2E3FGHIRWXY/LB1 |
Departure
| Time | N/A |
|---|---|
| Airport | Hazrat Shahjalal International Airport (VGHS) |
Arrival
| Time | 2026-05-04 19:42 |
|---|---|
| Airport | Yangon International Airport (VYYY) |
| Time | Latitude | Longitude | Altitude | Speed | Heading |
|---|---|---|---|---|---|
| 2026-05-04 19:32 | 17.11263 | 96.14664 | 2996 ft | 246 kts | 302° |
| 2026-05-04 19:32 | 17.12489 | 96.13481 | 2903 ft | 238 kts | 333° |
| 2026-05-04 19:32 | 17.14054 | 96.13027 | 2873 ft | 229 kts | 349° |
| 2026-05-04 19:32 | 17.15580 | 96.12763 | 2863 ft | 216 kts | 346° |
| 2026-05-04 19:33 | 17.17011 | 96.12362 | 2877 ft | 216 kts | 340° |
| 2026-05-04 19:33 | 17.18471 | 96.12120 | 2870 ft | 216 kts | 2° |
| 2026-05-04 19:33 | 17.19913 | 96.12574 | 2867 ft | 221 kts | 32° |
| 2026-05-04 19:33 | 17.20940 | 96.13755 | 2866 ft | 223 kts | 66° |
| 2026-05-04 19:34 | 17.21169 | 96.15294 | 2863 ft | 211 kts | 101° |
| 2026-05-04 19:34 | 17.20576 | 96.16675 | 2874 ft | 209 kts | 134° |
| 2026-05-04 19:34 | 17.19428 | 96.17560 | 2874 ft | 206 kts | 152° |
| 2026-05-04 19:34 | 17.18183 | 96.18313 | 2867 ft | 206 kts | 152° |
| 2026-05-04 19:35 | 17.16943 | 96.19069 | 2869 ft | 206 kts | 152° |
| 2026-05-04 19:35 | 17.15729 | 96.19833 | 2867 ft | 205 kts | 150° |
| 2026-05-04 19:35 | 17.14563 | 96.20625 | 2872 ft | 196 kts | 148° |
| 2026-05-04 19:35 | 17.13432 | 96.21408 | 2872 ft | 194 kts | 148° |
| 2026-05-04 19:36 | 17.12320 | 96.22176 | 2872 ft | 191 kts | 149° |
| 2026-05-04 19:36 | 17.11210 | 96.22935 | 2876 ft | 191 kts | 149° |
| 2026-05-04 19:36 | 17.10094 | 96.23690 | 2875 ft | 191 kts | 149° |
| 2026-05-04 19:36 | 17.08971 | 96.24442 | 2872 ft | 189 kts | 153° |
| 2026-05-04 19:37 | 17.07751 | 96.24668 | 2887 ft | 174 kts | 195° |
| 2026-05-04 19:37 | 17.06668 | 96.24206 | 2879 ft | 167 kts | 211° |
| 2026-05-04 19:37 | 17.05680 | 96.23561 | 2878 ft | 167 kts | 216° |
| 2026-05-04 19:37 | 17.04746 | 96.22913 | 2828 ft | 153 kts | 215° |
| 2026-05-04 19:38 | 17.03881 | 96.22323 | 2644 ft | 144 kts | 216° |
| 2026-05-04 19:38 | 17.03056 | 96.21756 | 2463 ft | 143 kts | 216° |
| 2026-05-04 19:38 | 17.02228 | 96.21189 | 2283 ft | 140 kts | 217° |
| 2026-05-04 19:38 | 17.01422 | 96.20637 | 2106 ft | 141 kts | 217° |
| 2026-05-04 19:39 | 17.00603 | 96.20077 | 1931 ft | 140 kts | 217° |
| 2026-05-04 19:39 | 16.99790 | 96.19519 | 1753 ft | 139 kts | 217° |
| 2026-05-04 19:39 | 16.98980 | 96.18965 | 1575 ft | 138 kts | 218° |
| 2026-05-04 19:39 | 16.98173 | 96.18412 | 1396 ft | 138 kts | 218° |
| 2026-05-04 19:40 | 16.97367 | 96.17860 | 1217 ft | 138 kts | 217° |
| 2026-05-04 19:40 | 16.96566 | 96.17312 | 1045 ft | 140 kts | 217° |
| 2026-05-04 19:40 | 16.95750 | 96.16753 | 867 ft | 142 kts | 216° |
| 2026-05-04 19:40 | 16.94943 | 96.16188 | 669 ft | 137 kts | 215° |
| 2026-05-04 19:41 | 16.94143 | 96.15638 | 569 ft | 137 kts | 214° |
| 2026-05-04 19:41 | 16.93344 | 96.15087 | 381 ft | 136 kts | 211° |
| 2026-05-04 19:41 | 16.92541 | 96.14547 | 197 ft | 137 kts | 212° |
| 2026-05-04 19:41 | 16.91757 | 96.14013 | 95 ft | 126 kts | 212° |
| 2026-05-04 19:42 | 16.91132 | 96.13602 | 96 ft | 86 kts | 212° |
| 2026-05-04 19:42 | 16.90729 | 96.13329 | 97 ft | 61 kts | 214° |
| 2026-05-04 19:42 | 16.90524 | 96.13187 | 95 ft | 8 kts | 209° |
| 2026-05-04 19:42 | 16.90462 | 96.13184 | 95 ft | 10 kts | 150° |
| 2026-05-04 19:43 | 16.90417 | 96.13247 | 95 ft | 12 kts | 125° |
| 2026-05-04 19:43 | 16.90347 | 96.13300 | 95 ft | 13 kts | 187° |
| 2026-05-04 19:43 | 16.90261 | 96.13248 | 95 ft | 13 kts | 212° |
| 2026-05-04 19:43 | 16.90244 | 96.13249 | 95 ft | 8 kts | 163° |
| 2026-05-04 19:44 | 16.90215 | 96.13301 | 94 ft | 9 kts | 112° |
| 2026-05-04 19:44 | 16.90184 | 96.13353 | 94 ft | 0 kts | 123° |